createdAt,value
2018-02-05T00:00:20.782Z,97.01
2018-02-05T00:01:26.309Z,97.20
2018-02-05T00:02:31.842Z,97.11
2018-02-05T00:03:37.364Z,97.20
2018-02-05T00:04:42.893Z,97.58
2018-02-05T00:05:48.420Z,96.92
2018-02-05T00:06:54.007Z,96.92
2018-02-05T00:07:59.480Z,96.92
2018-02-05T00:09:05.006Z,97.30
2018-02-05T00:10:10.532Z,97.39
2018-02-05T00:11:16.062Z,97.01
2018-02-05T00:12:21.588Z,96.64
2018-02-05T00:13:27.116Z,96.92
2018-02-05T00:14:32.645Z,97.20
2018-02-05T00:15:38.179Z,96.54
2018-02-05T00:16:43.705Z,96.45
2018-02-05T00:17:49.243Z,96.35
2018-02-05T00:18:54.758Z,96.54
2018-02-05T00:20:00.285Z,96.64
2018-02-05T00:21:05.812Z,96.16
2018-02-05T00:22:11.342Z,96.64
2018-02-05T00:23:16.869Z,96.64
2018-02-05T00:24:22.398Z,96.64
2018-02-05T00:25:27.926Z,96.92
2018-02-05T00:26:33.458Z,97.01
2018-02-05T00:27:38.981Z,96.16
2018-02-05T00:28:44.516Z,96.54
2018-02-05T00:29:50.039Z,96.64
2018-02-05T00:30:55.569Z,96.64
2018-02-05T00:32:01.088Z,96.16
2018-02-05T00:33:06.620Z,96.26
2018-02-05T00:34:12.156Z,96.35
2018-02-05T00:35:17.673Z,96.45
2018-02-05T00:36:23.205Z,95.78
2018-02-05T00:37:28.730Z,95.97
2018-02-05T00:38:34.260Z,96.54
2018-02-05T00:39:39.790Z,96.26
2018-02-05T00:40:45.330Z,95.97
2018-02-05T00:41:50.842Z,96.54
2018-02-05T00:42:56.370Z,96.45
2018-02-05T00:44:01.896Z,96.16
2018-02-05T00:45:07.431Z,96.54
2018-02-05T00:46:12.958Z,96.64
2018-02-05T00:47:18.485Z,96.73
2018-02-05T00:48:24.007Z,96.35
2018-02-05T00:49:29.541Z,96.45
2018-02-05T00:50:35.072Z,96.73
2018-02-05T00:51:40.602Z,96.64
2018-02-05T00:52:46.131Z,96.54
2018-02-05T00:53:51.651Z,96.45
2018-02-05T00:54:57.188Z,96.35
2018-02-05T00:56:02.712Z,96.64
2018-02-05T00:57:08.238Z,96.64
2018-02-05T00:58:13.771Z,96.64
2018-02-05T00:59:19.290Z,96.64
2018-02-05T01:00:24.819Z,96.35
2018-02-05T01:01:30.354Z,96.16
2018-02-05T01:02:35.877Z,96.35
2018-02-05T01:03:41.401Z,96.83
2018-02-05T01:04:46.930Z,96.83
2018-02-05T01:05:52.464Z,97.11
2018-02-05T01:06:57.989Z,97.20
2018-02-05T01:08:03.515Z,96.16
2018-02-05T01:09:09.050Z,96.64
2018-02-05T01:10:14.575Z,96.45
2018-02-05T01:11:20.101Z,96.35
2018-02-05T01:12:25.628Z,96.35
2018-02-05T01:13:31.155Z,96.54
2018-02-05T01:14:36.687Z,96.64
2018-02-05T01:15:42.210Z,96.64
2018-02-05T01:16:47.743Z,96.54
2018-02-05T01:17:53.267Z,95.88
2018-02-05T01:18:58.796Z,96.07
2018-02-05T01:20:04.322Z,96.16
2018-02-05T01:21:09.850Z,96.07
2018-02-05T01:22:15.379Z,96.07
2018-02-05T01:23:20.910Z,95.88
2018-02-05T01:24:26.434Z,96.45
2018-02-05T01:25:31.970Z,96.54
2018-02-05T01:26:37.497Z,96.16
2018-02-05T01:27:43.022Z,96.26
2018-02-05T01:28:48.548Z,96.45
2018-02-05T01:29:54.083Z,96.64
2018-02-05T01:30:59.605Z,95.97
2018-02-05T01:32:05.137Z,96.54
2018-02-05T01:33:10.662Z,96.16
2018-02-05T01:34:16.187Z,96.54
2018-02-05T01:35:21.718Z,96.64
2018-02-05T01:36:27.249Z,96.64
2018-02-05T01:37:32.772Z,96.54
2018-02-05T01:38:38.368Z,96.83
2018-02-05T01:39:43.830Z,97.20
2018-02-05T01:40:49.356Z,96.35
2018-02-05T01:41:54.885Z,96.16
2018-02-05T01:43:00.414Z,95.78
2018-02-05T01:44:05.953Z,95.88
2018-02-05T01:45:11.471Z,96.07
2018-02-05T01:46:17.001Z,96.35
2018-02-05T01:47:22.530Z,96.26
2018-02-05T01:48:28.059Z,96.07
2018-02-05T01:49:33.588Z,96.16
2018-02-05T01:50:39.116Z,96.26
2018-02-05T01:51:44.644Z,96.26
2018-02-05T01:52:50.170Z,96.07
2018-02-05T01:53:55.699Z,96.45
2018-02-05T01:55:01.222Z,95.88
2018-02-05T01:56:06.756Z,96.16
2018-02-05T01:57:12.282Z,95.59
2018-02-05T01:58:17.809Z,95.78
2018-02-05T01:59:23.341Z,95.88
2018-02-05T02:00:28.868Z,95.97
2018-02-05T02:01:34.392Z,96.07
2018-02-05T02:02:39.927Z,95.97
2018-02-05T02:03:45.454Z,96.16
2018-02-05T02:04:50.983Z,96.16
2018-02-05T02:05:56.509Z,96.26
2018-02-05T02:07:02.032Z,95.78
2018-02-05T02:08:07.562Z,95.31
2018-02-05T02:09:13.094Z,95.40
2018-02-05T02:10:18.618Z,95.78
2018-02-05T02:11:24.150Z,95.31
2018-02-05T02:12:29.676Z,95.50
2018-02-05T02:13:35.205Z,96.16
2018-02-05T02:14:40.731Z,95.88
2018-02-05T02:15:46.262Z,95.69
2018-02-05T02:16:51.839Z,96.07
2018-02-05T02:17:57.316Z,95.97
2018-02-05T02:19:02.843Z,95.50
2018-02-05T02:20:08.375Z,95.88
2018-02-05T02:21:13.905Z,95.78
2018-02-05T02:22:19.428Z,96.16
2018-02-05T02:23:24.958Z,95.88
2018-02-05T02:24:30.499Z,95.50
2018-02-05T02:25:36.020Z,96.07
2018-02-05T02:26:41.544Z,95.69
2018-02-05T02:27:47.072Z,95.88
2018-02-05T02:28:52.597Z,95.78
2018-02-05T02:29:58.130Z,96.07
2018-02-05T02:31:03.668Z,95.88
2018-02-05T02:32:09.179Z,95.97
2018-02-05T02:33:14.710Z,95.88
2018-02-05T02:34:20.238Z,95.97
2018-02-05T02:35:25.772Z,95.59
2018-02-05T02:36:31.301Z,95.69
2018-02-05T02:37:36.824Z,95.50
2018-02-05T02:38:42.354Z,95.40
2018-02-05T02:39:47.883Z,95.88
2018-02-05T02:40:53.416Z,95.50
2018-02-05T02:41:58.942Z,95.78
2018-02-05T02:43:04.467Z,95.40
2018-02-05T02:44:09.993Z,95.40
2018-02-05T02:45:15.526Z,95.50
2018-02-05T02:46:21.050Z,95.50
2018-02-05T02:47:26.582Z,95.97
2018-02-05T02:48:32.110Z,95.88
2018-02-05T02:49:37.637Z,95.50
2018-02-05T02:50:43.167Z,95.50
2018-02-05T02:51:48.693Z,95.50
2018-02-05T02:52:54.219Z,95.69
2018-02-05T02:53:59.754Z,95.88
2018-02-05T02:55:05.276Z,95.59
2018-02-05T02:56:10.803Z,95.69
2018-02-05T02:57:16.333Z,95.97
2018-02-05T02:58:21.860Z,95.78
2018-02-05T02:59:27.390Z,95.12
2018-02-05T03:00:32.919Z,95.03
2018-02-05T03:01:38.447Z,95.03
2018-02-05T03:02:43.975Z,95.50
2018-02-05T03:03:49.501Z,94.84
2018-02-05T03:04:55.032Z,94.93
2018-02-05T03:06:00.559Z,94.37
2018-02-05T03:07:06.085Z,94.65
2018-02-05T03:08:11.611Z,94.65
2018-02-05T03:09:17.142Z,94.46
2018-02-05T03:10:22.666Z,94.65
2018-02-05T03:11:28.201Z,94.46
2018-02-05T03:12:33.723Z,93.99
2018-02-05T03:13:39.253Z,94.18
2018-02-05T03:14:44.796Z,94.27
2018-02-05T03:15:50.316Z,94.56
2018-02-05T03:16:55.836Z,93.99
2018-02-05T03:18:01.364Z,94.18
2018-02-05T03:19:06.891Z,94.27
2018-02-05T03:20:12.422Z,94.74
2018-02-05T03:21:17.952Z,94.93
2018-02-05T03:22:23.473Z,94.46
2018-02-05T03:23:29.002Z,94.56
2018-02-05T03:24:34.531Z,94.56
2018-02-05T03:25:40.062Z,95.12
2018-02-05T03:26:45.590Z,95.21
2018-02-05T03:27:51.118Z,95.50
2018-02-05T03:28:56.641Z,95.03
2018-02-05T03:30:02.174Z,95.21
2018-02-05T03:31:07.699Z,95.12
2018-02-05T03:32:13.236Z,95.12
2018-02-05T03:33:18.753Z,95.31
2018-02-05T03:34:24.281Z,95.31
2018-02-05T03:35:29.817Z,95.31
2018-02-05T03:36:35.340Z,95.21
2018-02-05T03:37:40.863Z,95.31
2018-02-05T03:38:46.394Z,95.78
2018-02-05T03:39:51.922Z,95.88
2018-02-05T03:40:57.469Z,95.59
2018-02-05T03:42:02.979Z,95.78
2018-02-05T03:43:08.510Z,95.69
2018-02-05T03:44:14.038Z,96.26
2018-02-05T03:45:19.566Z,96.07
2018-02-05T03:46:25.092Z,96.35
2018-02-05T03:47:30.613Z,96.54
2018-02-05T03:48:36.141Z,97.01
2018-02-05T03:49:41.673Z,96.64
2018-02-05T03:50:47.208Z,97.11
2018-02-05T03:51:52.726Z,97.58
2018-02-05T03:52:58.303Z,97.49
2018-02-05T03:54:03.779Z,97.20
2018-02-05T03:55:09.308Z,97.77
2018-02-05T03:56:14.843Z,97.49
2018-02-05T03:57:20.363Z,97.39
2018-02-05T03:58:25.889Z,98.05
2018-02-05T03:59:31.418Z,97.86
2018-02-05T04:00:36.942Z,97.58
2018-02-05T04:01:42.474Z,97.86
2018-02-05T04:02:48.005Z,97.77
2018-02-05T04:03:53.532Z,97.58
2018-02-05T04:04:59.065Z,98.14
2018-02-05T04:06:04.584Z,98.05
2018-02-05T04:07:10.112Z,97.96
2018-02-05T04:08:15.637Z,98.33
2018-02-05T04:09:21.173Z,98.33
2018-02-05T04:10:26.700Z,98.33
2018-02-05T04:11:32.223Z,99.00
2018-02-05T04:12:37.748Z,99.00
2018-02-05T04:13:43.284Z,99.19
2018-02-05T04:14:48.804Z,99.09
2018-02-05T04:15:54.331Z,99.19
2018-02-05T04:16:59.860Z,99.09
2018-02-05T04:18:05.390Z,99.47
2018-02-05T04:19:10.915Z,99.38
2018-02-05T04:20:16.442Z,99.47
2018-02-05T04:21:21.983Z,99.85
2018-02-05T04:22:27.500Z,99.57
2018-02-05T04:23:33.029Z,99.66
2018-02-05T04:24:38.551Z,99.66
2018-02-05T04:25:44.086Z,99.47
2018-02-05T04:26:49.612Z,99.57
2018-02-05T04:27:55.137Z,99.00
2018-02-05T04:29:00.662Z,99.19
2018-02-05T04:30:06.192Z,99.19
2018-02-05T04:31:11.728Z,99.19
2018-02-05T04:32:17.246Z,99.00
2018-02-05T04:33:22.774Z,98.33
2018-02-05T04:34:28.309Z,97.96
2018-02-05T04:35:33.830Z,98.24
2018-02-05T04:36:39.368Z,97.77
2018-02-05T04:37:44.883Z,97.86
2018-02-05T04:38:50.414Z,97.67
2018-02-05T04:39:55.946Z,98.14
2018-02-05T04:41:01.473Z,97.77
2018-02-05T04:42:07.002Z,97.01
2018-02-05T04:43:12.523Z,97.30
2018-02-05T04:44:18.053Z,96.83
2018-02-05T04:45:23.581Z,96.83
2018-02-05T04:46:29.105Z,97.49
2018-02-05T04:47:34.638Z,97.58
2018-02-05T04:48:40.169Z,96.45
2018-02-05T04:49:45.701Z,96.83
2018-02-05T04:50:51.222Z,96.83
2018-02-05T04:51:56.749Z,96.92
2018-02-05T04:53:02.280Z,97.20
2018-02-05T04:54:07.805Z,97.11
2018-02-05T04:55:13.329Z,97.15
2018-02-05T04:56:18.859Z,97.53
2018-02-05T04:57:24.384Z,97.58
2018-02-05T04:58:29.913Z,96.78
2018-02-05T04:59:35.440Z,97.72
2018-02-05T05:00:40.967Z,97.06
2018-02-05T05:01:46.493Z,97.15
2018-02-05T05:02:52.033Z,97.25
2018-02-05T05:03:57.552Z,97.34
2018-02-05T05:05:03.089Z,97.25
2018-02-05T05:06:08.610Z,97.06
2018-02-05T05:07:14.139Z,97.06
2018-02-05T05:08:19.669Z,97.25
2018-02-05T05:09:25.191Z,97.25
2018-02-05T05:10:30.712Z,97.44
2018-02-05T05:11:36.245Z,96.96
2018-02-05T05:12:41.771Z,96.49
2018-02-05T05:13:47.296Z,97.53
2018-02-05T05:14:52.824Z,97.25
2018-02-05T05:15:58.355Z,97.15
2018-02-05T05:17:03.882Z,97.06
2018-02-05T05:18:09.409Z,97.44
2018-02-05T05:19:14.948Z,97.25
2018-02-05T05:20:20.465Z,97.25
2018-02-05T05:21:25.996Z,97.63
2018-02-05T05:22:31.525Z,97.44
2018-02-05T05:23:37.052Z,98.47
2018-02-05T05:24:42.575Z,97.72
2018-02-05T05:25:48.105Z,97.72
2018-02-05T05:26:53.628Z,97.34
2018-02-05T05:27:59.169Z,97.44
2018-02-05T05:29:04.686Z,97.63
2018-02-05T05:30:10.218Z,97.72
2018-02-05T05:31:15.744Z,97.34
2018-02-05T05:32:21.272Z,97.91
2018-02-05T05:33:26.804Z,97.53
2018-02-05T05:34:32.327Z,97.91
2018-02-05T05:35:37.857Z,97.34
2018-02-05T05:36:43.387Z,97.06
2018-02-05T05:37:48.909Z,97.25
2018-02-05T05:38:54.437Z,96.78
2018-02-05T05:39:59.966Z,97.15
2018-02-05T05:41:05.683Z,97.15
2018-02-05T05:42:11.018Z,96.49
2018-02-05T05:43:16.543Z,96.87
2018-02-05T05:44:22.109Z,96.68
2018-02-05T05:45:27.605Z,96.96
2018-02-05T05:46:33.134Z,96.59
2018-02-05T05:47:38.659Z,96.30
2018-02-05T05:48:44.188Z,96.59
2018-02-05T05:49:49.715Z,96.49
2018-02-05T05:50:55.243Z,96.21
2018-02-05T05:52:00.770Z,96.21
2018-02-05T05:53:06.299Z,96.21
2018-02-05T05:54:11.826Z,96.11
2018-02-05T05:55:17.354Z,95.73
2018-02-05T05:56:22.883Z,95.45
2018-02-05T05:57:28.409Z,95.54
2018-02-05T05:58:33.932Z,95.07
2018-02-05T05:59:39.457Z,95.17
2018-02-05T06:00:44.992Z,95.07
2018-02-05T06:01:50.553Z,95.07
2018-02-05T06:02:56.047Z,95.26
2018-02-05T06:04:01.572Z,95.17
2018-02-05T06:05:07.101Z,95.07
2018-02-05T06:06:12.626Z,95.17
2018-02-05T06:07:18.154Z,95.26
2018-02-05T06:08:23.677Z,94.89
2018-02-05T06:09:29.207Z,94.60
2018-02-05T06:10:34.737Z,94.79
2018-02-05T06:11:40.264Z,94.51
2018-02-05T06:12:45.792Z,94.51
2018-02-05T06:13:51.317Z,94.32
2018-02-05T06:14:56.845Z,94.41
2018-02-05T06:16:02.377Z,94.03
2018-02-05T06:17:07.914Z,94.13
2018-02-05T06:18:13.435Z,94.03
2018-02-05T06:19:18.955Z,93.84
2018-02-05T06:20:24.479Z,93.84
2018-02-05T06:21:30.009Z,93.47
2018-02-05T06:22:35.536Z,93.84
2018-02-05T06:23:41.062Z,93.56
2018-02-05T06:24:46.590Z,93.94
2018-02-05T06:25:52.123Z,94.13
2018-02-05T06:26:57.651Z,93.66
2018-02-05T06:28:03.174Z,93.75
2018-02-05T06:29:08.698Z,94.13
2018-02-05T06:30:14.231Z,93.66
2018-02-05T06:31:19.753Z,93.94
2018-02-05T06:32:25.327Z,93.75
2018-02-05T06:33:30.810Z,93.94
2018-02-05T06:34:36.341Z,93.47
2018-02-05T06:35:41.864Z,93.56
2018-02-05T06:36:47.393Z,93.75
2018-02-05T06:37:52.926Z,93.84
2018-02-05T06:38:58.443Z,92.71
2018-02-05T06:40:03.980Z,92.99
2018-02-05T06:41:09.501Z,93.28
2018-02-05T06:42:15.029Z,93.09
2018-02-05T06:43:20.566Z,93.47
2018-02-05T06:44:26.083Z,93.84
2018-02-05T06:45:31.613Z,93.84
2018-02-05T06:46:37.135Z,93.37
2018-02-05T06:47:42.663Z,93.18
2018-02-05T06:48:48.200Z,92.80
2018-02-05T06:49:53.724Z,93.56
2018-02-05T06:50:59.249Z,92.90
2018-02-05T06:52:04.777Z,93.09
2018-02-05T06:53:10.303Z,93.37
2018-02-05T06:54:15.831Z,93.94
2018-02-05T06:55:21.354Z,93.84
2018-02-05T06:56:26.887Z,93.94
2018-02-05T06:57:32.409Z,93.94
2018-02-05T06:58:37.934Z,93.94
2018-02-05T06:59:43.463Z,93.75
2018-02-05T07:00:48.993Z,93.84
2018-02-05T07:01:54.517Z,93.84
2018-02-05T07:03:00.047Z,94.32
2018-02-05T07:04:05.576Z,94.03
2018-02-05T07:05:11.100Z,94.22
2018-02-05T07:06:16.627Z,94.22
2018-02-05T07:07:22.154Z,94.22
2018-02-05T07:08:27.684Z,93.94
2018-02-05T07:09:33.212Z,94.13
2018-02-05T07:10:38.741Z,94.03
2018-02-05T07:11:44.263Z,94.13
2018-02-05T07:12:49.793Z,94.22
2018-02-05T07:13:55.316Z,93.84
2018-02-05T07:15:00.853Z,93.75
2018-02-05T07:16:06.375Z,93.37
2018-02-05T07:17:11.904Z,93.84
2018-02-05T07:18:17.429Z,93.84
2018-02-05T07:19:22.952Z,93.75
2018-02-05T07:20:28.484Z,93.66
2018-02-05T07:21:34.012Z,93.56
2018-02-05T07:22:39.546Z,93.09
2018-02-05T07:23:45.063Z,92.90
2018-02-05T07:24:50.600Z,93.18
2018-02-05T07:25:56.122Z,93.18
2018-02-05T07:27:01.653Z,92.99
2018-02-05T07:28:07.172Z,93.18
2018-02-05T07:29:12.705Z,93.09
2018-02-05T07:30:18.237Z,92.99
2018-02-05T07:31:23.760Z,92.99
2018-02-05T07:32:29.285Z,92.90
2018-02-05T07:33:34.813Z,92.99
2018-02-05T07:34:40.336Z,92.99
2018-02-05T07:35:45.943Z,93.28
2018-02-05T07:36:51.391Z,93.28
2018-02-05T07:37:56.917Z,93.37
2018-02-05T07:39:02.508Z,93.28
2018-02-05T07:40:07.974Z,93.28
2018-02-05T07:41:13.498Z,93.28
2018-02-05T07:42:19.027Z,92.99
2018-02-05T07:43:24.558Z,92.71
2018-02-05T07:44:30.081Z,93.09
2018-02-05T07:45:35.607Z,93.28
2018-02-05T07:46:41.140Z,93.28
2018-02-05T07:47:46.674Z,92.90
2018-02-05T07:48:52.189Z,93.18
2018-02-05T07:49:57.726Z,93.28
2018-02-05T07:51:03.245Z,93.84
2018-02-05T07:52:08.772Z,94.03
2018-02-05T07:53:14.396Z,92.99
2018-02-05T07:54:19.829Z,93.18
2018-02-05T07:55:25.357Z,93.28
2018-02-05T07:56:30.888Z,92.99
2018-02-05T07:57:36.425Z,92.71
2018-02-05T07:58:41.941Z,92.24
2018-02-05T07:59:47.468Z,91.67
2018-02-05T08:00:52.994Z,92.24
2018-02-05T08:01:58.532Z,92.33
2018-02-05T08:03:04.047Z,93.28
2018-02-05T08:04:09.575Z,92.90
2018-02-05T08:05:15.103Z,93.09
2018-02-05T08:06:20.632Z,92.52
2018-02-05T08:07:26.160Z,92.71
2018-02-05T08:08:31.697Z,93.18
2018-02-05T08:09:37.218Z,93.09
2018-02-05T08:10:42.743Z,92.52
2018-02-05T08:11:48.272Z,92.14
2018-02-05T08:12:53.803Z,91.77
2018-02-05T08:13:59.324Z,91.96
2018-02-05T08:15:04.853Z,92.33
2018-02-05T08:16:10.381Z,93.28
2018-02-05T08:17:15.915Z,92.71
2018-02-05T08:18:21.440Z,91.96
2018-02-05T08:19:26.967Z,92.14
2018-02-05T08:20:32.492Z,91.58
2018-02-05T08:21:38.019Z,91.58
2018-02-05T08:22:43.549Z,91.58
2018-02-05T08:23:49.077Z,91.67
2018-02-05T08:24:54.607Z,91.77
2018-02-05T08:26:00.173Z,91.29
2018-02-05T08:27:05.662Z,91.10
2018-02-05T08:28:11.193Z,91.77
2018-02-05T08:29:16.719Z,91.81
2018-02-05T08:30:22.250Z,91.53
2018-02-05T08:31:27.781Z,90.77
2018-02-05T08:32:33.302Z,90.77
2018-02-05T08:33:38.831Z,90.01
2018-02-05T08:34:44.368Z,89.83
2018-02-05T08:35:49.885Z,90.30
2018-02-05T08:36:55.418Z,89.83
2018-02-05T08:38:00.942Z,89.64
2018-02-05T08:39:06.471Z,88.69
2018-02-05T08:40:12.081Z,89.45
2018-02-05T08:41:17.523Z,89.83
2018-02-05T08:42:23.056Z,88.69
2018-02-05T08:43:28.585Z,88.98
2018-02-05T08:44:34.112Z,88.22
2018-02-05T08:45:39.640Z,87.55
2018-02-05T08:46:45.170Z,88.12
2018-02-05T08:47:50.693Z,88.03
2018-02-05T08:48:56.225Z,88.60
2018-02-05T08:50:01.755Z,87.84
2018-02-05T08:51:07.278Z,88.17
2018-02-05T08:52:12.817Z,87.46
2018-02-05T08:53:18.339Z,87.23
2018-02-05T08:54:23.873Z,87.32
2018-02-05T08:55:29.397Z,86.94
2018-02-05T08:56:34.926Z,86.28
2018-02-05T08:57:40.451Z,86.09
2018-02-05T08:58:45.983Z,85.90
2018-02-05T08:59:51.507Z,85.99
2018-02-05T09:00:57.037Z,85.42
2018-02-05T09:02:02.568Z,85.61
2018-02-05T09:03:08.094Z,85.05
2018-02-05T09:04:13.628Z,84.48
2018-02-05T09:05:19.152Z,84.58
2018-02-05T09:06:24.677Z,84.67
2018-02-05T09:07:30.210Z,85.42
2018-02-05T09:08:35.743Z,85.71
2018-02-05T09:09:41.268Z,86.18
2018-02-05T09:10:46.798Z,85.42
2018-02-05T09:11:52.328Z,84.86
2018-02-05T09:12:57.854Z,84.10
2018-02-05T09:14:03.380Z,84.67
2018-02-05T09:15:08.910Z,84.39
2018-02-05T09:16:14.441Z,85.24
2018-02-05T09:17:19.966Z,84.39
2018-02-05T09:18:25.496Z,84.10
2018-02-05T09:19:31.029Z,84.48
2018-02-05T09:20:36.556Z,85.05
2018-02-05T09:21:42.094Z,85.42
2018-02-05T09:22:47.620Z,84.77
2018-02-05T09:23:53.145Z,84.95
2018-02-05T09:24:58.671Z,84.77
2018-02-05T09:26:04.203Z,84.20
2018-02-05T09:27:09.729Z,84.67
2018-02-05T09:29:47.349Z,84.86
2018-02-05T09:30:52.852Z,83.53
2018-02-05T09:31:58.385Z,82.97
2018-02-05T09:33:03.908Z,83.63
2018-02-05T09:34:09.436Z,83.82
2018-02-05T09:35:14.964Z,83.82
2018-02-05T09:36:20.497Z,84.48
2018-02-05T09:37:26.022Z,85.14
2018-02-05T09:38:31.549Z,84.48
2018-02-05T09:39:37.077Z,84.77
2018-02-05T09:40:42.605Z,84.67
2018-02-05T09:41:48.134Z,84.48
2018-02-05T09:42:53.660Z,84.58
2018-02-05T09:43:59.191Z,84.20
2018-02-05T09:45:04.723Z,84.58
2018-02-05T09:46:10.248Z,85.05
2018-02-05T09:47:15.778Z,84.86
2018-02-05T09:48:21.302Z,85.05
2018-02-05T09:49:26.831Z,84.20
2018-02-05T09:50:32.367Z,83.34
2018-02-05T09:51:37.885Z,84.20
2018-02-05T09:52:43.417Z,84.48
2018-02-05T09:53:48.950Z,85.24
2018-02-05T09:54:54.477Z,85.42
2018-02-05T09:56:00.011Z,85.33
2018-02-05T09:57:05.530Z,84.29
2018-02-05T09:58:11.058Z,84.29
2018-02-05T09:59:16.586Z,83.06
2018-02-05T10:00:22.114Z,83.06
2018-02-05T10:01:27.640Z,84.10
2018-02-05T10:02:33.178Z,84.05
2018-02-05T10:03:38.705Z,83.44
2018-02-05T10:04:44.226Z,83.34
2018-02-05T10:05:49.754Z,82.82
2018-02-05T10:06:55.292Z,83.39
2018-02-05T10:08:00.811Z,83.48
2018-02-05T10:09:06.342Z,84.14
2018-02-05T10:10:11.871Z,82.06
2018-02-05T10:11:17.397Z,81.21
2018-02-05T10:12:22.932Z,82.25
2018-02-05T10:13:28.466Z,81.02
2018-02-05T10:14:33.989Z,81.12
2018-02-05T10:15:39.541Z,79.41
2018-02-05T10:16:45.046Z,79.41
2018-02-05T10:17:50.581Z,81.21
2018-02-05T10:18:56.112Z,82.15
2018-02-05T10:20:01.638Z,82.06
2018-02-05T10:21:07.168Z,81.59
2018-02-05T10:22:12.694Z,81.21
2018-02-05T10:23:18.228Z,81.02
2018-02-05T10:24:23.760Z,81.40
2018-02-05T10:25:29.285Z,81.59
2018-02-05T10:26:34.824Z,80.93
2018-02-05T10:27:40.352Z,80.74
2018-02-05T10:28:45.876Z,80.74
2018-02-05T10:29:51.411Z,79.88
2018-02-05T10:30:56.933Z,79.88
2018-02-05T10:32:02.466Z,79.98
2018-02-05T10:33:07.993Z,81.21
2018-02-05T10:34:13.528Z,82.15
2018-02-05T10:35:19.061Z,82.34
2018-02-05T10:36:24.591Z,81.96
2018-02-05T10:37:30.116Z,81.96
2018-02-05T10:38:35.646Z,79.03
2018-02-05T10:39:41.180Z,80.17
2018-02-05T10:40:46.713Z,79.13
2018-02-05T10:41:52.237Z,79.41
2018-02-05T10:42:57.806Z,80.45
2018-02-05T10:44:03.299Z,80.64
2018-02-05T10:45:08.827Z,81.21
2018-02-05T10:46:14.359Z,82.25
2018-02-05T10:47:19.892Z,82.63
2018-02-05T10:48:25.421Z,82.15
2018-02-05T10:49:30.950Z,80.74
2018-02-05T10:50:36.476Z,79.60
2018-02-05T10:51:42.008Z,79.79
2018-02-05T10:52:47.535Z,81.02
2018-02-05T10:53:53.071Z,81.77
2018-02-05T10:54:58.600Z,81.21
2018-02-05T10:56:04.127Z,81.25
2018-02-05T10:57:09.658Z,80.58
2018-02-05T10:58:15.191Z,78.50
2018-02-05T10:59:20.719Z,78.03
2018-02-05T11:00:26.250Z,77.89
2018-02-05T11:01:31.775Z,79.83
2018-02-05T11:02:37.312Z,77.65
2018-02-05T11:03:42.847Z,77.27
2018-02-05T11:04:48.376Z,77.27
2018-02-05T11:05:53.897Z,78.03
2018-02-05T11:06:59.432Z,77.84
2018-02-05T11:08:04.958Z,76.51
2018-02-05T11:09:10.491Z,76.00
2018-02-05T11:10:16.026Z,77.94
2018-02-05T11:11:21.558Z,76.80
2018-02-05T11:12:27.081Z,76.57
2018-02-05T11:13:32.610Z,78.22
2018-02-05T11:14:38.147Z,77.56
2018-02-05T11:15:43.681Z,78.31
2018-02-05T11:16:49.203Z,78.98
2018-02-05T11:17:54.740Z,78.69
2018-02-05T11:19:00.274Z,76.89
2018-02-05T11:20:05.796Z,77.56
2018-02-05T11:21:11.327Z,78.41
2018-02-05T11:22:16.858Z,78.98
2018-02-05T11:23:22.392Z,79.13
2018-02-05T11:24:27.920Z,77.70
2018-02-05T11:25:33.456Z,77.75
2018-02-05T11:26:38.979Z,78.79
2018-02-05T11:27:44.512Z,78.03
2018-02-05T11:28:50.044Z,78.22
2018-02-05T11:29:55.578Z,78.69
2018-02-05T11:31:01.101Z,79.07
2018-02-05T11:32:06.631Z,78.22
2018-02-05T11:33:12.163Z,76.70
2018-02-05T11:34:17.704Z,77.18
2018-02-05T11:35:23.226Z,75.85
2018-02-05T11:36:28.762Z,74.71
2018-02-05T11:37:34.291Z,75.43
2018-02-05T11:38:39.817Z,76.51
2018-02-05T11:39:45.353Z,77.70
2018-02-05T11:40:50.876Z,77.46
2018-02-05T11:41:56.410Z,75.24
2018-02-05T11:43:01.939Z,75.91
2018-02-05T11:44:07.474Z,77.14
2018-02-05T11:46:44.597Z,77.42
2018-02-05T11:47:50.122Z,75.15
2018-02-05T11:48:55.654Z,74.30
2018-02-05T11:50:01.161Z,74.87
2018-02-05T11:51:06.691Z,74.58
2018-02-05T11:52:12.222Z,76.10
2018-02-05T11:53:17.754Z,77.04
2018-02-05T11:54:23.278Z,77.89
2018-02-05T11:55:28.811Z,77.04
2018-02-05T11:56:34.341Z,74.02
2018-02-05T11:57:39.869Z,74.77
2018-02-05T11:58:45.402Z,75.43
2018-02-05T11:59:50.933Z,75.91
2018-02-05T12:00:56.463Z,75.15
2018-02-05T12:02:01.991Z,74.77
2018-02-05T12:03:07.520Z,73.83
2018-02-05T12:04:13.061Z,74.02
2018-02-05T12:05:18.590Z,74.77
2018-02-05T12:06:24.112Z,74.96
2018-02-05T12:07:29.640Z,74.96
2018-02-05T12:08:35.173Z,73.07
2018-02-05T12:09:40.703Z,71.36
2018-02-05T12:10:46.237Z,71.55
2018-02-05T12:11:51.763Z,70.98
2018-02-05T12:12:57.291Z,71.65
2018-02-05T12:14:02.820Z,70.93
2018-02-05T12:15:08.368Z,71.02
2018-02-05T12:16:13.882Z,70.17
2018-02-05T12:17:19.412Z,73.86
2018-02-05T12:18:24.942Z,75.66
2018-02-05T12:19:30.475Z,74.90
2018-02-05T12:20:36.004Z,73.86
2018-02-05T12:21:41.534Z,74.05
2018-02-05T12:22:47.103Z,74.71
2018-02-05T12:23:52.599Z,72.92
2018-02-05T12:24:58.126Z,71.69
2018-02-05T12:26:03.653Z,70.17
2018-02-05T12:27:09.189Z,70.79
2018-02-05T12:28:14.720Z,72.03
2018-02-05T12:29:20.248Z,74.96
2018-02-05T12:30:25.780Z,77.27
2018-02-05T12:31:31.317Z,76.29
2018-02-05T12:32:36.840Z,76.19
2018-02-05T12:33:42.372Z,75.81
2018-02-05T12:34:47.894Z,76.00
2018-02-05T12:35:53.430Z,75.24
2018-02-05T12:36:58.960Z,73.26
2018-02-05T12:38:04.489Z,74.21
2018-02-05T12:39:10.016Z,74.02
2018-02-05T12:40:15.553Z,73.83
2018-02-05T12:41:21.084Z,73.16
2018-02-05T12:42:26.616Z,73.35
2018-02-05T12:43:32.139Z,72.78
2018-02-05T12:44:37.674Z,71.65
2018-02-05T12:45:43.201Z,72.12
2018-02-05T12:46:48.730Z,72.50
2018-02-05T12:47:54.262Z,71.74
2018-02-05T12:48:59.798Z,72.12
2018-02-05T12:50:05.344Z,73.07
2018-02-05T12:51:10.851Z,72.31
2018-02-05T12:52:16.376Z,71.65
2018-02-05T12:53:21.908Z,71.46
2018-02-05T12:54:27.443Z,72.88
2018-02-05T12:55:32.982Z,73.16
2018-02-05T12:56:38.501Z,72.88
2018-02-05T12:57:44.030Z,71.27
2018-02-05T12:58:49.558Z,72.50
2018-02-05T12:59:55.095Z,75.05
2018-02-05T13:01:00.618Z,74.21
2018-02-05T13:02:06.151Z,71.74
2018-02-05T13:03:11.675Z,70.04
2018-02-05T13:04:17.209Z,70.89
2018-02-05T13:05:22.742Z,71.08
2018-02-05T13:06:28.268Z,70.61
2018-02-05T13:07:33.799Z,71.46
2018-02-05T13:08:39.329Z,73.07
2018-02-05T13:09:44.861Z,71.74
2018-02-05T13:10:50.391Z,72.41
2018-02-05T13:11:55.926Z,70.04
2018-02-05T13:13:01.450Z,68.90
2018-02-05T13:14:06.976Z,68.62
2018-02-05T13:15:12.515Z,72.12
2018-02-05T13:16:18.039Z,70.98
2018-02-05T13:17:23.571Z,71.27
2018-02-05T13:18:29.097Z,69.76
2018-02-05T13:19:34.626Z,68.33
2018-02-05T13:20:40.161Z,68.81
2018-02-05T13:21:45.689Z,72.31
2018-02-05T13:22:51.221Z,72.31
2018-02-05T13:23:56.746Z,71.65
2018-02-05T13:25:02.278Z,71.17
2018-02-05T13:26:07.805Z,66.82
2018-02-05T13:27:13.343Z,66.73
2018-02-05T13:28:18.865Z,67.01
2018-02-05T13:29:24.397Z,66.92
2018-02-05T13:30:29.940Z,66.73
2018-02-05T13:31:35.450Z,67.77
2018-02-05T13:32:40.983Z,66.82
2018-02-05T13:33:46.514Z,66.69
2018-02-05T13:34:52.051Z,67.07
2018-02-05T13:35:57.572Z,67.36
2018-02-05T13:37:03.107Z,66.69
2018-02-05T13:38:08.630Z,67.64
2018-02-05T13:39:14.170Z,68.30
2018-02-05T13:40:19.693Z,67.20
2018-02-05T13:41:25.224Z,66.50
2018-02-05T13:42:30.752Z,66.98
2018-02-05T13:43:36.279Z,67.17
2018-02-05T13:44:41.807Z,66.50
2018-02-05T13:45:47.346Z,64.71
2018-02-05T13:46:52.968Z,64.23
2018-02-05T13:47:58.396Z,65.56
2018-02-05T13:49:03.928Z,67.83
2018-02-05T13:50:09.457Z,67.83
2018-02-05T13:51:14.983Z,69.82
2018-02-05T13:52:20.515Z,67.93
2018-02-05T13:53:26.060Z,67.07
2018-02-05T13:54:31.575Z,67.36
2018-02-05T13:55:37.103Z,67.74
2018-02-05T13:56:42.634Z,66.22
2018-02-05T13:57:48.164Z,69.15
2018-02-05T13:58:53.684Z,70.39
2018-02-05T13:59:59.223Z,71.14
2018-02-05T14:01:04.751Z,69.34
2018-02-05T14:02:10.275Z,69.15
2018-02-05T14:03:15.818Z,70.48
2018-02-05T14:04:21.345Z,70.67
2018-02-05T14:05:26.870Z,71.23
2018-02-05T14:06:32.397Z,69.06